createdAt,value
2023-05-11T00:02:59.623Z,8.63
2023-05-11T00:06:04.596Z,9.20
2023-05-11T00:09:07.787Z,10.13
2023-05-11T00:12:11.083Z,9.70
2023-05-11T00:15:14.246Z,9.30
2023-05-11T00:18:17.422Z,8.63
2023-05-11T00:21:22.996Z,8.90
2023-05-11T00:24:26.366Z,8.73
2023-05-11T00:27:29.495Z,9.60
2023-05-11T00:30:32.582Z,8.50
2023-05-11T00:33:35.796Z,9.03
2023-05-11T00:36:41.442Z,9.37
2023-05-11T00:39:44.692Z,9.13
2023-05-11T00:42:47.831Z,9.90
2023-05-11T00:45:52.490Z,9.30
2023-05-11T00:48:55.997Z,8.50
2023-05-11T00:52:03.146Z,8.80
2023-05-11T00:55:07.187Z,8.80
2023-05-11T00:58:10.279Z,8.60
2023-05-11T01:01:14.925Z,8.70
2023-05-11T01:04:18.168Z,9.30
2023-05-11T01:07:26.994Z,8.90
2023-05-11T01:10:35.487Z,7.70
2023-05-11T01:13:43.918Z,7.70
2023-05-11T01:16:50.895Z,8.53
2023-05-11T01:19:59.908Z,8.37
2023-05-11T01:23:26.178Z,8.13
2023-05-11T01:26:50.959Z,8.77
2023-05-11T01:30:30.153Z,8.40
2023-05-11T01:33:36.540Z,8.30
2023-05-11T01:36:45.338Z,7.53
2023-05-11T01:39:54.092Z,8.13
2023-05-11T01:43:02.563Z,8.20
2023-05-11T01:46:10.292Z,7.87
2023-05-11T01:49:15.618Z,7.93
2023-05-11T01:52:21.822Z,8.60
2023-05-11T01:55:27.128Z,7.70
2023-05-11T01:58:31.139Z,8.60
2023-05-11T02:01:36.896Z,8.10
2023-05-11T02:04:41.417Z,6.90
2023-05-11T02:07:49.065Z,7.60
2023-05-11T02:10:53.342Z,8.00
2023-05-11T02:13:58.504Z,6.63
2023-05-11T02:17:04.829Z,7.90
2023-05-11T02:20:10.317Z,7.57
2023-05-11T02:23:14.248Z,6.97
2023-05-11T02:26:18.051Z,7.50
2023-05-11T02:29:21.478Z,8.40
2023-05-11T02:32:28.653Z,7.50
2023-05-11T02:35:34.627Z,7.20
2023-05-11T02:38:39.712Z,7.10
2023-05-11T02:41:46.169Z,6.90
2023-05-11T02:45:03.456Z,6.43
2023-05-11T02:48:10.976Z,6.93
2023-05-11T02:51:15.434Z,6.40
2023-05-11T02:54:19.976Z,7.50
2023-05-11T02:57:23.041Z,6.77
2023-05-11T03:00:26.350Z,6.70
2023-05-11T03:03:31.047Z,7.00
2023-05-11T03:06:34.617Z,7.10
2023-05-11T03:09:38.078Z,6.40
2023-05-11T03:12:41.246Z,6.93
2023-05-11T03:15:45.212Z,7.90
2023-05-11T03:18:50.533Z,6.90
2023-05-11T03:21:54.636Z,6.93
2023-05-11T03:24:57.806Z,80.00
2023-05-11T03:28:02.853Z,26.23
2023-05-11T03:31:06.036Z,19.50
2023-05-11T03:34:10.532Z,21.60
2023-05-11T03:37:15.095Z,24.97
2023-05-11T03:40:20.853Z,19.77
2023-05-11T03:43:24.176Z,45.37
2023-05-11T03:46:29.938Z,31.13
2023-05-11T03:49:34.915Z,27.23
2023-05-11T03:52:38.873Z,53.23
2023-05-11T03:55:42.192Z,38.87
2023-05-11T03:58:46.207Z,49.70
2023-05-11T04:01:53.030Z,44.23
2023-05-11T04:04:57.499Z,16.40
2023-05-11T04:08:00.985Z,19.33
2023-05-11T04:11:04.049Z,12.73
2023-05-11T04:14:07.210Z,20.93
2023-05-11T04:17:10.506Z,31.20
2023-05-11T04:20:15.065Z,17.40
2023-05-11T04:23:18.183Z,10.73
2023-05-11T04:26:21.779Z,11.93
2023-05-11T04:29:24.983Z,10.73
2023-05-11T04:32:28.535Z,9.30
2023-05-11T04:35:34.548Z,9.00
2023-05-11T04:38:37.964Z,9.03
2023-05-11T04:41:41.073Z,9.23
2023-05-11T04:44:44.184Z,9.70
2023-05-11T04:47:47.377Z,8.97
2023-05-11T04:50:51.981Z,9.43
2023-05-11T04:53:55.049Z,9.30
2023-05-11T04:56:58.231Z,9.27
2023-05-11T05:00:01.499Z,9.83
2023-05-11T05:03:04.836Z,9.70
2023-05-11T05:06:09.420Z,10.43
2023-05-11T05:09:12.445Z,10.80
2023-05-11T05:12:15.512Z,10.33
2023-05-11T05:15:18.519Z,10.43
2023-05-11T05:18:21.611Z,10.77
2023-05-11T05:21:26.166Z,10.80
2023-05-11T05:24:29.177Z,11.47
2023-05-11T05:27:34.881Z,11.50
2023-05-11T05:30:38.382Z,10.70
2023-05-11T05:33:41.453Z,11.40
2023-05-11T05:36:45.906Z,12.00
2023-05-11T05:39:48.938Z,11.47
2023-05-11T05:42:52.012Z,12.80
2023-05-11T05:45:55.064Z,11.30
2023-05-11T05:48:58.068Z,29.10
2023-05-11T05:52:02.527Z,14.63
2023-05-11T05:55:06.296Z,12.40
2023-05-11T05:58:09.330Z,17.33
2023-05-11T06:01:12.434Z,12.90
2023-05-11T06:04:15.881Z,15.63
2023-05-11T06:07:20.643Z,10.40
2023-05-11T06:10:23.661Z,11.73
2023-05-11T06:13:26.611Z,10.83
2023-05-11T06:16:30.373Z,10.77
2023-05-11T06:22:55.307Z,11.30
2023-05-11T06:25:58.324Z,11.13
2023-05-11T06:29:01.549Z,10.97
2023-05-11T06:32:04.783Z,10.63
2023-05-11T06:35:08.485Z,10.90
2023-05-11T06:38:12.872Z,10.50
2023-05-11T06:41:15.937Z,11.00
2023-05-11T06:44:18.936Z,11.70
2023-05-11T06:47:21.985Z,11.20
2023-05-11T06:50:27.521Z,10.07
2023-05-11T06:53:32.243Z,10.37
2023-05-11T06:56:35.513Z,8.70
2023-05-11T06:59:38.536Z,9.20
2023-05-11T07:02:41.634Z,9.17
2023-05-11T07:05:44.892Z,8.93
2023-05-11T07:08:49.854Z,8.33
2023-05-11T07:11:53.000Z,7.80
2023-05-11T07:14:56.068Z,6.40
2023-05-11T07:17:59.244Z,7.00
2023-05-11T07:21:02.362Z,6.43
2023-05-11T07:24:07.423Z,7.30
2023-05-11T07:27:10.692Z,6.77
2023-05-11T07:30:14.177Z,7.20
2023-05-11T07:33:17.498Z,6.83
2023-05-11T07:36:20.572Z,7.20
2023-05-11T07:39:24.977Z,8.17
2023-05-11T07:42:27.997Z,9.80
2023-05-11T07:45:31.598Z,9.70
2023-05-11T07:48:34.620Z,9.80
2023-05-11T07:51:37.937Z,9.07
2023-05-11T07:54:42.379Z,10.20
2023-05-11T07:57:45.423Z,9.90
2023-05-11T08:00:48.589Z,9.83
2023-05-11T08:03:51.715Z,10.23
2023-05-11T08:06:55.001Z,11.17
2023-05-11T08:09:59.488Z,10.47
2023-05-11T08:13:02.615Z,10.00
2023-05-11T08:16:06.871Z,8.93
2023-05-11T08:19:10.071Z,8.77
2023-05-11T08:22:13.403Z,7.50
2023-05-11T08:25:18.524Z,7.00
2023-05-11T08:28:22.220Z,6.60
2023-05-11T08:31:25.283Z,6.57
2023-05-11T08:34:28.872Z,5.90
2023-05-11T08:37:32.272Z,5.90
2023-05-11T08:40:36.934Z,5.30
2023-05-11T08:43:41.608Z,6.70
2023-05-11T08:46:48.023Z,7.83
2023-05-11T08:49:52.400Z,7.10
2023-05-11T08:52:56.103Z,6.40
2023-05-11T08:56:01.367Z,5.03
2023-05-11T08:59:06.399Z,5.37
2023-05-11T09:02:14.546Z,4.93
2023-05-11T09:05:18.184Z,4.67
2023-05-11T09:08:22.748Z,4.50
2023-05-11T09:11:28.411Z,4.77
2023-05-11T09:14:31.810Z,5.30
2023-05-11T09:17:34.993Z,4.93
2023-05-11T09:20:38.090Z,7.77
2023-05-11T09:23:42.088Z,5.23
2023-05-11T09:26:46.529Z,5.97
2023-05-11T09:29:52.174Z,6.13
2023-05-11T09:32:57.515Z,4.70
2023-05-11T09:36:00.695Z,5.23
2023-05-11T09:39:17.012Z,5.13
2023-05-11T09:42:23.349Z,5.43
2023-05-11T09:45:39.705Z,5.10
2023-05-11T09:48:42.994Z,5.50
2023-05-11T09:51:46.021Z,6.03
2023-05-11T09:54:51.432Z,5.57
2023-05-11T09:57:57.481Z,5.60
2023-05-11T10:01:00.798Z,5.87
2023-05-11T10:04:22.267Z,4.87
2023-05-11T10:07:28.912Z,4.60
2023-05-11T10:10:33.538Z,4.57
2023-05-11T10:13:38.847Z,5.03
2023-05-11T10:16:43.423Z,4.60
2023-05-11T10:19:47.254Z,4.13
2023-05-11T10:22:53.632Z,4.40
2023-05-11T10:25:58.394Z,5.60
2023-05-11T10:29:04.094Z,4.70
2023-05-11T10:32:08.847Z,4.53
2023-05-11T10:35:12.416Z,5.40
2023-05-11T10:38:16.539Z,4.80
2023-05-11T10:41:32.964Z,3.40
2023-05-11T10:44:52.486Z,6.03
2023-05-11T10:48:22.774Z,8.53
2023-05-11T10:51:58.345Z,4.13
2023-05-11T10:55:11.553Z,5.87
2023-05-11T10:58:18.002Z,5.77
2023-05-11T11:01:36.702Z,5.77
2023-05-11T11:04:46.272Z,10.77
2023-05-11T11:08:00.412Z,14.47
2023-05-11T11:11:05.010Z,12.97
2023-05-11T11:14:11.552Z,10.17
2023-05-11T11:17:29.304Z,11.67
2023-05-11T11:20:49.043Z,11.80
2023-05-11T11:23:52.378Z,8.57
2023-05-11T11:26:55.490Z,4.57
2023-05-11T11:30:18.778Z,5.70
2023-05-11T11:33:35.707Z,4.83
2023-05-11T11:37:05.328Z,5.63
2023-05-11T11:40:15.365Z,281.00
2023-05-11T11:43:20.870Z,127.53
2023-05-11T11:46:28.887Z,426.67
2023-05-11T11:49:33.621Z,318.53
2023-05-11T11:52:36.679Z,144.23
2023-05-11T11:55:50.310Z,80.67
2023-05-11T11:59:00.656Z,94.77
2023-05-11T12:02:05.154Z,60.33
2023-05-11T12:05:13.117Z,56.87
2023-05-11T12:08:18.503Z,37.33
2023-05-11T12:11:24.334Z,15.67
2023-05-11T12:14:28.585Z,14.80
2023-05-11T12:17:33.972Z,18.30
2023-05-11T12:20:38.803Z,16.03
2023-05-11T12:23:52.917Z,13.40
2023-05-11T12:26:59.261Z,8.70
2023-05-11T12:30:02.361Z,7.77
2023-05-11T12:33:09.118Z,5.47
2023-05-11T12:36:16.146Z,6.43
2023-05-11T12:39:20.236Z,4.27
2023-05-11T12:42:23.647Z,4.10
2023-05-11T12:45:27.606Z,29.67
2023-05-11T12:48:30.926Z,111.43
2023-05-11T12:51:53.132Z,269.57
2023-05-11T12:55:00.364Z,209.63
2023-05-11T12:58:10.313Z,205.40
2023-05-11T13:01:13.664Z,271.40
2023-05-11T13:04:17.066Z,256.47
2023-05-11T13:07:28.594Z,292.60
2023-05-11T13:10:32.166Z,318.43
2023-05-11T13:13:35.680Z,327.60
2023-05-11T13:16:38.730Z,178.33
2023-05-11T13:19:41.918Z,260.97
2023-05-11T13:22:47.028Z,165.20
2023-05-11T13:25:54.631Z,247.17
2023-05-11T13:29:09.502Z,224.67
2023-05-11T13:32:14.284Z,64.93
2023-05-11T13:35:17.853Z,120.83
2023-05-11T13:38:22.686Z,51.17
2023-05-11T13:41:26.236Z,77.90
2023-05-11T13:44:29.684Z,62.70
2023-05-11T13:47:32.858Z,52.57
2023-05-11T13:50:36.134Z,41.93
2023-05-11T13:53:40.653Z,48.40
2023-05-11T13:56:43.814Z,23.20
2023-05-11T13:59:46.838Z,5.70
2023-05-11T14:02:51.559Z,9.00
2023-05-11T14:05:54.654Z,16.80
2023-05-11T14:08:59.101Z,15.80
2023-05-11T14:12:03.243Z,26.13
2023-05-11T14:15:07.388Z,31.47
2023-05-11T14:18:10.678Z,36.50
2023-05-11T14:21:14.268Z,23.33
2023-05-11T14:24:18.780Z,20.43
2023-05-11T14:27:22.322Z,22.53
2023-05-11T14:30:28.249Z,19.67
2023-05-11T14:33:31.290Z,16.77
2023-05-11T14:36:34.618Z,16.20
2023-05-11T14:39:39.124Z,19.00
2023-05-11T14:42:42.476Z,23.30
2023-05-11T14:45:45.612Z,35.43
2023-05-11T14:48:48.963Z,45.70
2023-05-11T14:51:52.052Z,30.13
2023-05-11T14:54:56.574Z,25.93
2023-05-11T14:57:59.833Z,43.57
2023-05-11T15:01:04.034Z,37.20
2023-05-11T15:04:07.221Z,39.30
2023-05-11T15:07:10.412Z,45.33
2023-05-11T15:10:14.957Z,35.93
2023-05-11T15:13:18.901Z,34.47
2023-05-11T15:16:23.707Z,31.77
2023-05-11T15:19:26.865Z,30.67
2023-05-11T15:22:30.027Z,26.90
2023-05-11T15:25:34.619Z,26.33
2023-05-11T15:28:37.759Z,31.93
2023-05-11T15:31:40.941Z,35.57
2023-05-11T15:34:58.489Z,31.40
2023-05-11T15:38:02.877Z,42.93
2023-05-11T15:41:07.868Z,45.53
2023-05-11T15:44:11.162Z,38.13
2023-05-11T15:47:14.295Z,23.90
2023-05-11T15:50:17.877Z,31.00
2023-05-11T15:53:21.097Z,39.30
2023-05-11T15:56:26.742Z,33.13
2023-05-11T15:59:32.832Z,47.20
2023-05-11T16:02:36.145Z,56.77
2023-05-11T16:05:39.494Z,75.10
2023-05-11T16:08:43.088Z,72.93
2023-05-11T16:11:47.652Z,61.43
2023-05-11T16:14:50.781Z,48.00
2023-05-11T16:17:53.903Z,41.97
2023-05-11T16:20:57.580Z,47.90
2023-05-11T16:24:01.140Z,60.50
2023-05-11T16:27:07.181Z,79.83
2023-05-11T16:30:22.476Z,73.03
2023-05-11T16:33:27.396Z,72.37
2023-05-11T16:36:30.973Z,66.13
2023-05-11T16:39:34.173Z,83.67
2023-05-11T16:42:38.667Z,79.63
2023-05-11T16:45:41.965Z,91.50
2023-05-11T16:48:45.520Z,68.93
2023-05-11T16:51:48.745Z,68.03
2023-05-11T16:54:51.847Z,61.23
2023-05-11T16:57:56.396Z,70.23
2023-05-11T17:00:59.888Z,53.83
2023-05-11T17:04:03.107Z,49.57
2023-05-11T17:07:08.701Z,53.50
2023-05-11T17:10:12.183Z,48.20
2023-05-11T17:13:17.117Z,65.33
2023-05-11T17:16:20.740Z,53.67
2023-05-11T17:19:23.897Z,58.10
2023-05-11T17:22:29.815Z,69.67
2023-05-11T17:25:33.496Z,82.13
2023-05-11T17:28:38.062Z,68.70
2023-05-11T17:31:42.173Z,87.03
2023-05-11T17:34:46.293Z,71.17
2023-05-11T17:37:49.442Z,54.90
2023-05-11T17:40:52.752Z,61.50
2023-05-11T17:43:57.596Z,54.10
2023-05-11T17:47:00.753Z,44.57
2023-05-11T17:50:04.601Z,51.70
2023-05-11T17:53:07.885Z,43.00
2023-05-11T17:56:11.995Z,46.50
2023-05-11T17:59:17.987Z,49.80
2023-05-11T18:02:23.426Z,33.40
2023-05-11T18:05:40.536Z,38.73
2023-05-11T18:08:50.046Z,37.67
2023-05-11T18:11:53.166Z,43.03
2023-05-11T18:14:57.691Z,33.77
2023-05-11T18:18:01.595Z,28.30
2023-05-11T18:21:06.748Z,37.17
2023-05-11T18:24:10.709Z,25.73
2023-05-11T18:27:13.826Z,25.97
2023-05-11T18:30:19.556Z,26.00
2023-05-11T18:33:26.526Z,20.13
2023-05-11T18:36:29.972Z,24.27
2023-05-11T18:39:33.213Z,22.87
2023-05-11T18:42:37.012Z,25.57
2023-05-11T18:45:42.081Z,20.03
2023-05-11T18:48:45.862Z,19.80
2023-05-11T18:51:50.089Z,25.00
2023-05-11T18:54:54.415Z,20.47
2023-05-11T18:58:00.438Z,21.73
2023-05-11T19:01:05.826Z,22.77
2023-05-11T19:04:09.250Z,19.93
2023-05-11T19:07:12.569Z,23.03
2023-05-11T19:10:16.707Z,21.80
2023-05-11T19:13:20.551Z,18.00
2023-05-11T19:16:25.204Z,15.17
2023-05-11T19:19:29.110Z,13.30
2023-05-11T19:22:32.436Z,15.17
2023-05-11T19:25:35.603Z,19.87
2023-05-11T19:28:39.417Z,13.63
2023-05-11T19:31:44.162Z,12.50
2023-05-11T19:34:47.389Z,14.20
2023-05-11T19:37:50.846Z,11.70
2023-05-11T19:40:54.305Z,11.50
2023-05-11T19:43:57.910Z,11.33
2023-05-11T19:47:02.488Z,13.83
2023-05-11T19:50:08.765Z,11.60
2023-05-11T19:53:12.618Z,9.37
2023-05-11T19:56:16.940Z,20.50
2023-05-11T19:59:21.690Z,25.17
2023-05-11T20:02:28.440Z,25.67
2023-05-11T20:05:32.169Z,23.30
2023-05-11T20:08:35.485Z,34.10
2023-05-11T20:11:38.531Z,30.43
2023-05-11T20:14:42.494Z,34.13
2023-05-11T20:17:47.240Z,24.30
2023-05-11T20:20:50.839Z,28.40
2023-05-11T20:23:54.594Z,21.20
2023-05-11T20:26:58.578Z,21.30
2023-05-11T20:30:02.770Z,19.43
2023-05-11T20:36:14.503Z,22.10
2023-05-11T20:39:17.940Z,20.33
2023-05-11T20:42:21.009Z,29.70
2023-05-11T20:45:24.112Z,16.23
2023-05-11T20:48:39.104Z,18.00
2023-05-11T20:51:45.093Z,20.73
2023-05-11T20:54:49.180Z,16.10
2023-05-11T20:57:52.858Z,16.33
2023-05-11T21:00:56.169Z,17.47
2023-05-11T21:04:00.670Z,20.00
2023-05-11T21:07:03.798Z,14.30
2023-05-11T21:10:07.964Z,10.60
2023-05-11T21:13:13.301Z,13.97
2023-05-11T21:16:16.826Z,12.67
2023-05-11T21:19:21.920Z,12.87
2023-05-11T21:22:25.081Z,11.50
2023-05-11T21:25:28.260Z,10.67
2023-05-11T21:28:32.812Z,9.93
2023-05-11T21:31:35.882Z,8.90
2023-05-11T21:34:40.737Z,10.03
2023-05-11T21:37:45.694Z,11.60
2023-05-11T21:40:52.793Z,10.00
2023-05-11T21:43:55.865Z,9.93
2023-05-11T21:46:58.937Z,9.00
2023-05-11T21:50:03.541Z,8.13
2023-05-11T21:53:06.916Z,9.37
2023-05-11T21:56:10.366Z,9.27
2023-05-11T21:59:13.383Z,7.33
2023-05-11T22:02:16.539Z,7.90
2023-05-11T22:05:21.557Z,8.30
2023-05-11T22:08:24.611Z,7.40
2023-05-11T22:11:27.737Z,6.60
2023-05-11T22:14:31.220Z,7.43
2023-05-11T22:17:34.332Z,6.97
2023-05-11T22:20:38.827Z,7.40
2023-05-11T22:23:41.933Z,6.87
2023-05-11T22:26:45.110Z,8.47
2023-05-11T22:29:49.051Z,6.77
2023-05-11T22:32:52.250Z,6.50
2023-05-11T22:35:56.770Z,6.73
2023-05-11T22:38:59.952Z,6.23
2023-05-11T22:42:03.555Z,6.33
2023-05-11T22:45:07.678Z,5.90
2023-05-11T22:48:10.737Z,6.20
2023-05-11T22:51:15.331Z,6.50
2023-05-11T22:54:18.444Z,5.53
2023-05-11T22:57:22.151Z,5.77
2023-05-11T23:00:25.504Z,5.57
2023-05-11T23:03:29.170Z,5.33
2023-05-11T23:06:33.859Z,5.83
2023-05-11T23:09:36.812Z,4.97
2023-05-11T23:12:39.824Z,4.70
2023-05-11T23:15:42.874Z,5.10
2023-05-11T23:18:46.097Z,4.90
2023-05-11T23:21:50.708Z,4.70
2023-05-11T23:24:56.568Z,4.67
2023-05-11T23:27:59.633Z,4.73
2023-05-11T23:31:03.174Z,4.40
2023-05-11T23:34:06.330Z,4.47
2023-05-11T23:37:10.762Z,5.00
2023-05-11T23:40:14.021Z,4.43
2023-05-11T23:43:17.088Z,4.33
2023-05-11T23:46:20.181Z,4.37
2023-05-11T23:49:23.907Z,4.60
2023-05-11T23:52:28.354Z,3.73
2023-05-11T23:55:31.412Z,4.23
2023-05-11T23:58:34.513Z,4.07
